Time;durP1;ratioP1;P1;durP2;ratioP2;P2;SDS_P1;SDS_P2;PMS_P1;PMS_P2;Temp;Humidity;BMP_temperature;BMP_pressure;BME280_temperature;BME280_humidity;BME280_pressure;Samples;Min_cycle;Max_cycle;Signal;HPM_P1;HPM_P2
2023/10/15 00:00:47;;;;;;;;;;;;;;;;;;2075535;28;20286;-85
2023/10/15 00:02:05;;;;;;;;;;;;;;;;;;2072822;28;19909;-84
2023/10/15 00:03:24;;;;;;;;;;;;;;;;;;2076680;28;20380;-85
2023/10/15 00:04:43;;;;;;;;;;;;;;;;;;2082608;28;19913;-84
2023/10/15 00:06:03;;;;;;;;;;;;;;;;;;2081699;28;19905;-84
2023/10/15 00:07:22;;;;;;;;;;;;;;;;;;2083398;28;20350;-85
2023/10/15 00:08:41;;;;;;;;;;;;;;;;;;2081748;28;19987;-85
2023/10/15 00:10:00;;;;;;;;;;;;;;;;;;2077040;28;20305;-85
2023/10/15 00:11:21;;;;;;;;;;;;;;;;;;2076718;28;19948;-85
2023/10/15 00:12:40;;;;;;;;;;;;;;;;;;2080166;28;20382;-85
2023/10/15 00:13:58;;;;;;;;;;;;;;;;;;2076624;28;19909;-84
2023/10/15 00:15:20;;;;;;;;;;;;;;;;;;2076429;28;19909;-85
2023/10/15 00:16:39;;;;;;;;;;;;;;;;;;2074075;28;20325;-83
2023/10/15 00:18:01;;;;;;;;;;;;;;;;;;2069032;28;19909;-84
2023/10/15 00:19:20;;;;;;;;;;;;;;;;;;2077625;28;20345;-84
2023/10/15 00:20:40;;;;;;;;;;;;;;;;;;2081307;28;19917;-82
2023/10/15 00:22:00;;;;;;;;;;;;;;;;;;2075385;28;19992;-83
2023/10/15 00:23:19;;;;;;;;;;;;;;;;;;2078556;28;20249;-82
2023/10/15 00:24:39;;;;;;;;;;;;;;;;;;2072894;28;19972;-82
2023/10/15 00:25:59;;;;;;;;;;;;;;;;;;2078788;28;20343;-84
2023/10/15 00:27:20;;;;;;;;;;;;;;;;;;2080436;28;20372;-84
2023/10/15 00:28:38;;;;;;;;;;;;;;;;;;2073294;28;19906;-84
2023/10/15 00:29:57;;;;;;;;;;;;;;;;;;2073348;28;19964;-81
2023/10/15 00:31:17;;;;;;;;;;;;;;;;;;2078606;28;19946;-82
2023/10/15 00:32:37;;;;;;;;;;;;;;;;;;2078418;28;19913;-79
2023/10/15 00:33:56;;;;;;;;;;;;;;;;;;2080433;28;19913;-83
2023/10/15 00:35:21;;;;;;;;;;;;;;;;;;2079667;28;19906;-83
2023/10/15 00:36:40;;;;;;;;;;;;;;;;;;2080823;28;19913;-84
2023/10/15 00:37:59;;;;;;;;;;;;;;;;;;2080086;28;19905;-82
2023/10/15 00:39:21;;;;;;;;;;;;;;;;;;2074602;28;20008;-82
2023/10/15 00:40:41;;;;;;;;;;;;;;;;;;2080471;28;19905;-85
2023/10/15 00:42:01;;;;;;;;;;;;;;;;;;2075817;28;19995;-84
2023/10/15 00:43:20;;;;;;;;;;;;;;;;;;2075690;28;19917;-83
2023/10/15 00:44:39;;;;;;;;;;;;;;;;;;2066729;28;19914;-80
2023/10/15 00:45:59;;;;;;;;;;;;;;;;;;2078457;28;19909;-82
2023/10/15 00:47:19;;;;;;;;;;;;;;;;;;2080076;28;20258;-82
2023/10/15 00:48:38;;;;;;;;;;;;;;;;;;2074451;28;19909;-82
2023/10/15 00:49:57;;;;;;;;;;;;;;;;;;2074478;28;19948;-83
2023/10/15 00:51:17;;;;;;;;;;;;;;;;;;2080767;28;19905;-83
2023/10/15 00:52:42;;;;;;;;;;;;;;;;;;2081172;28;19991;-81
2023/10/15 00:54:09;;;;;;;;;;;;;;;;;;2076209;28;19905;-83
2023/10/15 00:55:28;;;;;;;;;;;;;;;;;;2071633;28;19906;-84
2023/10/15 00:56:46;;;;;;;;;;;;;;;;;;2079035;28;19904;-83
2023/10/15 00:58:07;;;;;;;;;;;;;;;;;;2081080;28;19909;-85
2023/10/15 00:59:43;;;;;;;;;;;;;;;;;;2074978;28;19963;-84
2023/10/15 01:02:43;;;;;;;;;;;;;;;;;;2079224;28;19944;-83
2023/10/15 01:04:15;;;;;;;;;;;;;;;;;;2075493;28;20313;-83
2023/10/15 01:05:45;;;;;;;;;;;;;;;;;;2079677;28;19913;-83
2023/10/15 01:07:20;;;;;;;;;;;;;;;;;;2079567;28;19905;-84
2023/10/15 01:08:40;;;;;;;;;;;;;;;;;;2081152;28;19940;-84
2023/10/15 01:10:01;;;;;;;;;;;;;;;;;;2075627;28;19909;-83
2023/10/15 01:11:20;;;;;;;;;;;;;;;;;;2079319;28;19905;-84
2023/10/15 01:12:38;;;;;;;;;;;;;;;;;;2074625;28;19992;-83
2023/10/15 01:13:57;;;;;;;;;;;;;;;;;;2074367;28;20541;-83
2023/10/15 01:15:16;;;;;;;;;;;;;;;;;;2077939;28;20363;-83
2023/10/15 01:16:36;;;;;;;;;;;;;;;;;;2076470;28;19909;-83
2023/10/15 01:18:06;;;;;;;;;;;;;;;;;;2080485;28;19905;-83
2023/10/15 01:19:31;;;;;;;;;;;;;;;;;;2075349;28;19995;-82
2023/10/15 01:20:50;;;;;;;;;;;;;;;;;;2028381;28;1244152;-82
2023/10/15 01:22:10;;;;;;;;;;;;;;;;;;2078387;28;19909;-83
2023/10/15 01:23:43;;;;;;;;;;;;;;;;;;2076041;28;19905;-82
2023/10/15 01:25:02;;;;;;;;;;;;;;;;;;2077678;28;19948;-82
2023/10/15 01:26:24;;;;;;;;;;;;;;;;;;2073685;28;19917;-83
2023/10/15 01:27:44;;;;;;;;;;;;;;;;;;2075151;28;19909;-83
2023/10/15 01:29:05;;;;;;;;;;;;;;;;;;2079598;28;19957;-82
2023/10/15 01:30:24;;;;;;;;;;;;;;;;;;2075048;28;19948;-82
2023/10/15 01:31:56;;;;;;;;;;;;;;;;;;2078697;28;19909;-82
2023/10/15 01:33:15;;;;;;;;;;;;;;;;;;2081726;28;19909;-82
2023/10/15 01:34:37;;;;;;;;;;;;;;;;;;2080979;28;20354;-82
2023/10/15 01:35:58;;;;;;;;;;;;;;;;;;2073818;28;19913;-82
2023/10/15 01:38:39;;;;;;;;;;;;;;;;;;2079239;28;19912;-81
2023/10/15 01:40:24;;;;;;;;;;;;;;;;;;2080800;28;19909;-82
2023/10/15 01:41:39;;;;;;;;;;;;;;;;;;2080556;28;20354;-81
2023/10/15 01:42:59;;;;;;;;;;;;;;;;;;2082757;28;19999;-82
2023/10/15 01:44:19;;;;;;;;;;;;;;;;;;2076971;28;20387;-83
2023/10/15 01:45:38;;;;;;;;;;;;;;;;;;2078811;28;20349;-82
2023/10/15 01:48:30;;;;;;;;;;;;;;;;;;2078812;28;19909;-81
2023/10/15 01:49:53;;;;;;;;;;;;;;;;;;2075751;28;19913;-82
2023/10/15 01:51:16;;;;;;;;;;;;;;;;;;2080358;28;20000;-83
2023/10/15 01:52:41;;;;;;;;;;;;;;;;;;2075459;28;19908;-83
2023/10/15 01:54:00;;;;;;;;;;;;;;;;;;2080129;28;19905;-83
2023/10/15 01:55:19;;;;;;;;;;;;;;;;;;2081850;28;19905;-82
2023/10/15 01:56:38;;;;;;;;;;;;;;;;;;2076717;28;19909;-81
2023/10/15 01:58:00;;;;;;;;;;;;;;;;;;2075187;28;19913;-82
2023/10/15 01:59:19;;;;;;;;;;;;;;;;;;2079161;28;19909;-82
2023/10/15 02:02:01;;;;;;;;;;;;;;;;;;2078142;28;19909;-82
2023/10/15 02:03:20;;;;;;;;;;;;;;;;;;2076600;28;19941;-83
2023/10/15 02:04:44;;;;;;;;;;;;;;;;;;2075238;28;20346;-82
2023/10/15 02:06:05;;;;;;;;;;;;;;;;;;2080603;28;20115;-82
2023/10/15 02:07:24;;;;;;;;;;;;;;;;;;2082260;28;19904;-82
2023/10/15 02:08:45;;;;;;;;;;;;;;;;;;2072335;28;19909;-81
2023/10/15 02:10:05;;;;;;;;;;;;;;;;;;2078353;28;19913;-83
2023/10/15 02:11:23;;;;;;;;;;;;;;;;;;2075685;28;19917;-83
2023/10/15 02:12:42;;;;;;;;;;;;;;;;;;2069735;28;20402;-80
2023/10/15 02:14:01;;;;;;;;;;;;;;;;;;2074375;28;20378;-80
2023/10/15 02:15:22;;;;;;;;;;;;;;;;;;2077318;28;19905;-82
2023/10/15 02:16:41;;;;;;;;;;;;;;;;;;2072540;28;20168;-83
2023/10/15 02:18:00;;;;;;;;;;;;;;;;;;2075471;28;19936;-82
2023/10/15 02:19:34;;;;;;;;;;;;;;;;;;2072041;28;19913;-82
2023/10/15 02:21:00;;;;;;;;;;;;;;;;;;2073058;28;19925;-82
2023/10/15 02:22:21;;;;;;;;;;;;;;;;;;2078848;28;20150;-82
2023/10/15 02:23:48;;;;;;;;;;;;;;;;;;2077829;28;19909;-81
2023/10/15 02:25:08;;;;;;;;;;;;;;;;;;2080608;28;19912;-83
2023/10/15 02:26:30;;;;;;;;;;;;;;;;;;2074328;28;20370;-82
2023/10/15 02:27:49;;;;;;;;;;;;;;;;;;2078591;28;19905;-83
2023/10/15 02:29:27;;;;;;;;;;;;;;;;;;2075000;28;19913;-82
2023/10/15 02:30:46;;;;;;;;;;;;;;;;;;2077102;28;20004;-82
2023/10/15 02:32:09;;;;;;;;;;;;;;;;;;2075154;28;19910;-82
2023/10/15 02:33:27;;;;;;;;;;;;;;;;;;2077611;28;19987;-83
2023/10/15 02:34:49;;;;;;;;;;;;;;;;;;2074936;28;19905;-83
2023/10/15 02:36:09;;;;;;;;;;;;;;;;;;2078305;28;19909;-82
2023/10/15 02:37:28;;;;;;;;;;;;;;;;;;2081686;28;19905;-82
2023/10/15 02:38:53;;;;;;;;;;;;;;;;;;2075837;28;19996;-83
2023/10/15 02:40:20;;;;;;;;;;;;;;;;;;2078119;28;19908;-83
2023/10/15 02:41:43;;;;;;;;;;;;;;;;;;2073977;28;19909;-84
2023/10/15 02:43:06;;;;;;;;;;;;;;;;;;2078875;28;19992;-82
2023/10/15 02:44:25;;;;;;;;;;;;;;;;;;2079609;28;20269;-81
2023/10/15 02:45:47;;;;;;;;;;;;;;;;;;2075844;28;20258;-83
2023/10/15 02:47:55;;;;;;;;;;;;;;;;;;2072731;28;19920;-83
2023/10/15 02:48:47;;;;;;;;;;;;;;;;;;2081862;28;20354;-82
2023/10/15 02:50:06;;;;;;;;;;;;;;;;;;2080874;28;19913;-82
2023/10/15 02:51:26;;;;;;;;;;;;;;;;;;2085041;28;19921;-82
2023/10/15 02:52:45;;;;;;;;;;;;;;;;;;2090431;28;19916;-79
2023/10/15 02:55:47;;;;;;;;;;;;;;;;;;2089837;28;20040;-82
2023/10/15 02:57:06;;;;;;;;;;;;;;;;;;2082934;28;19893;-82
2023/10/15 02:58:27;;;;;;;;;;;;;;;;;;2080318;28;19952;-82
2023/10/15 02:59:53;;;;;;;;;;;;;;;;;;2086302;28;19912;-80
2023/10/15 03:01:23;;;;;;;;;;;;;;;;;;2077025;28;19906;-83
2023/10/15 03:02:43;;;;;;;;;;;;;;;;;;2075701;28;19913;-82
2023/10/15 03:04:07;;;;;;;;;;;;;;;;;;2077325;28;20437;-82
2023/10/15 03:05:30;;;;;;;;;;;;;;;;;;2079467;28;19905;-80
2023/10/15 03:06:49;;;;;;;;;;;;;;;;;;2077016;28;19908;-82
2023/10/15 03:08:16;;;;;;;;;;;;;;;;;;2079415;28;19905;-83
2023/10/15 03:09:35;;;;;;;;;;;;;;;;;;2074847;28;19921;-82
2023/10/15 03:10:57;;;;;;;;;;;;;;;;;;2078843;28;20012;-82
2023/10/15 03:12:16;;;;;;;;;;;;;;;;;;2073518;28;19910;-82
2023/10/15 03:13:44;;;;;;;;;;;;;;;;;;2078232;28;19905;-82
2023/10/15 03:15:04;;;;;;;;;;;;;;;;;;2075684;28;19909;-82
2023/10/15 03:16:22;;;;;;;;;;;;;;;;;;2078107;28;19909;-82
2023/10/15 03:17:43;;;;;;;;;;;;;;;;;;2072919;28;19910;-83
2023/10/15 03:19:17;;;;;;;;;;;;;;;;;;2078122;28;19909;-82
2023/10/15 03:20:42;;;;;;;;;;;;;;;;;;2081220;28;19960;-82
2023/10/15 03:22:01;;;;;;;;;;;;;;;;;;2080714;28;20327;-82
2023/10/15 03:23:20;;;;;;;;;;;;;;;;;;2081355;28;19905;-81
2023/10/15 03:24:43;;;;;;;;;;;;;;;;;;2076257;28;19913;-82
2023/10/15 03:26:02;;;;;;;;;;;;;;;;;;2078971;28;19913;-82
2023/10/15 03:27:27;;;;;;;;;;;;;;;;;;2073320;28;20283;-82
2023/10/15 03:28:46;;;;;;;;;;;;;;;;;;2078613;28;19905;-82
2023/10/15 03:30:05;;;;;;;;;;;;;;;;;;2073477;28;19917;-82
2023/10/15 03:31:25;;;;;;;;;;;;;;;;;;2077285;28;20430;-82
2023/10/15 03:32:47;;;;;;;;;;;;;;;;;;2081492;28;19913;-82
2023/10/15 03:35:38;;;;;;;;;;;;;;;;;;2080960;28;19905;-83
2023/10/15 03:37:00;;;;;;;;;;;;;;;;;;2082339;28;19905;-82
2023/10/15 03:38:23;;;;;;;;;;;;;;;;;;2080268;28;19909;-80
2023/10/15 03:41:11;;;;;;;;;;;;;;;;;;2080843;28;19952;-82
2023/10/15 03:42:30;;;;;;;;;;;;;;;;;;2071550;28;19909;-81
2023/10/15 03:43:49;;;;;;;;;;;;;;;;;;2071593;28;19905;-82
2023/10/15 03:45:09;;;;;;;;;;;;;;;;;;2072994;28;19909;-82
2023/10/15 03:46:33;;;;;;;;;;;;;;;;;;2076320;28;19905;-82
2023/10/15 03:47:54;;;;;;;;;;;;;;;;;;2074878;28;20374;-83
2023/10/15 03:49:13;;;;;;;;;;;;;;;;;;2072004;28;19988;-82
2023/10/15 03:50:35;;;;;;;;;;;;;;;;;;2078519;28;19908;-82
2023/10/15 03:51:54;;;;;;;;;;;;;;;;;;2073678;28;19905;-82
2023/10/15 03:53:14;;;;;;;;;;;;;;;;;;2077254;28;20038;-82
2023/10/15 03:54:33;;;;;;;;;;;;;;;;;;2075069;28;20026;-82
2023/10/15 03:55:52;;;;;;;;;;;;;;;;;;2079638;28;19905;-82
2023/10/15 03:57:11;;;;;;;;;;;;;;;;;;2074866;28;19909;-82
2023/10/15 03:58:33;;;;;;;;;;;;;;;;;;2077910;28;19913;-81
2023/10/15 03:59:52;;;;;;;;;;;;;;;;;;2080730;28;19999;-84
2023/10/15 04:01:17;;;;;;;;;;;;;;;;;;2080161;28;19945;-82
2023/10/15 04:02:54;;;;;;;;;;;;;;;;;;2079203;28;19909;-82
2023/10/15 04:04:16;;;;;;;;;;;;;;;;;;2074977;28;19909;-82
2023/10/15 04:05:35;;;;;;;;;;;;;;;;;;2078601;28;19936;-82
2023/10/15 04:07:19;;;;;;;;;;;;;;;;;;2075383;28;20374;-79
2023/10/15 04:08:33;;;;;;;;;;;;;;;;;;2078951;28;19909;-82
2023/10/15 04:09:52;;;;;;;;;;;;;;;;;;2074718;28;20382;-82
2023/10/15 04:11:11;;;;;;;;;;;;;;;;;;2078439;28;19913;-82
2023/10/15 04:12:30;;;;;;;;;;;;;;;;;;2079873;28;19909;-82
2023/10/15 04:13:49;;;;;;;;;;;;;;;;;;2080618;28;20322;-82
2023/10/15 04:15:14;;;;;;;;;;;;;;;;;;2075476;28;19905;-83
2023/10/15 04:16:34;;;;;;;;;;;;;;;;;;2077663;28;19913;-84
2023/10/15 04:17:53;;;;;;;;;;;;;;;;;;2079506;28;20516;-83
2023/10/15 04:19:16;;;;;;;;;;;;;;;;;;2078687;28;20358;-83
2023/10/15 04:20:35;;;;;;;;;;;;;;;;;;2081285;28;19913;-82
2023/10/15 04:22:01;;;;;;;;;;;;;;;;;;2074621;28;19909;-82
2023/10/15 04:23:34;;;;;;;;;;;;;;;;;;2078825;28;19905;-83
2023/10/15 04:24:53;;;;;;;;;;;;;;;;;;2075863;28;19912;-83
2023/10/15 04:26:12;;;;;;;;;;;;;;;;;;2071646;28;19920;-81
2023/10/15 04:27:34;;;;;;;;;;;;;;;;;;2070755;28;19917;-80
2023/10/15 04:28:54;;;;;;;;;;;;;;;;;;2074587;28;19909;-82
2023/10/15 04:30:14;;;;;;;;;;;;;;;;;;2076591;28;19917;-82
2023/10/15 04:31:33;;;;;;;;;;;;;;;;;;2071435;28;20469;-83
2023/10/15 04:32:52;;;;;;;;;;;;;;;;;;2076945;28;19917;-82
2023/10/15 04:34:18;;;;;;;;;;;;;;;;;;2069304;28;19913;-81
2023/10/15 04:35:37;;;;;;;;;;;;;;;;;;2073815;28;19980;-81
2023/10/15 04:36:57;;;;;;;;;;;;;;;;;;2073277;28;19909;-80
2023/10/15 04:38:21;;;;;;;;;;;;;;;;;;2071544;28;19909;-83
2023/10/15 04:39:51;;;;;;;;;;;;;;;;;;2077490;28;19909;-83
2023/10/15 04:41:10;;;;;;;;;;;;;;;;;;2076319;28;19913;-83
2023/10/15 04:44:25;;;;;;;;;;;;;;;;;;2066258;28;20309;-84
2023/10/15 04:45:46;;;;;;;;;;;;;;;;;;2080197;28;19905;-83
2023/10/15 04:47:05;;;;;;;;;;;;;;;;;;2076407;28;19913;-83
2023/10/15 04:48:32;;;;;;;;;;;;;;;;;;2073247;28;19905;-83
2023/10/15 04:49:56;;;;;;;;;;;;;;;;;;2080281;28;19916;-84
2023/10/15 04:51:15;;;;;;;;;;;;;;;;;;2080639;28;20327;-83
2023/10/15 04:52:34;;;;;;;;;;;;;;;;;;2082251;28;19909;-83
2023/10/15 04:53:53;;;;;;;;;;;;;;;;;;2079917;28;19917;-83
2023/10/15 04:55:13;;;;;;;;;;;;;;;;;;2081223;28;19905;-83
2023/10/15 04:56:32;;;;;;;;;;;;;;;;;;2082332;28;19905;-83
2023/10/15 04:57:51;;;;;;;;;;;;;;;;;;2073740;28;19913;-83
2023/10/15 04:59:10;;;;;;;;;;;;;;;;;;2079081;28;19908;-83
2023/10/15 05:00:28;;;;;;;;;;;;;;;;;;2074673;28;20000;-83
2023/10/15 05:01:48;;;;;;;;;;;;;;;;;;2078025;28;19913;-83
2023/10/15 05:03:06;;;;;;;;;;;;;;;;;;2081305;28;20270;-83
2023/10/15 05:04:25;;;;;;;;;;;;;;;;;;2080898;28;20333;-83
2023/10/15 05:05:44;;;;;;;;;;;;;;;;;;2080369;28;20266;-84
2023/10/15 05:07:03;;;;;;;;;;;;;;;;;;2081788;28;20358;-83
2023/10/15 05:08:24;;;;;;;;;;;;;;;;;;2081238;28;19913;-83
2023/10/15 05:09:44;;;;;;;;;;;;;;;;;;2072687;28;19913;-83
2023/10/15 05:11:03;;;;;;;;;;;;;;;;;;2075424;28;19905;-84
2023/10/15 05:12:22;;;;;;;;;;;;;;;;;;2079022;28;20355;-83
2023/10/15 05:13:42;;;;;;;;;;;;;;;;;;2080636;28;19909;-83
2023/10/15 05:15:01;;;;;;;;;;;;;;;;;;2081100;28;20341;-82
2023/10/15 05:16:20;;;;;;;;;;;;;;;;;;2073951;28;19953;-83
2023/10/15 05:17:39;;;;;;;;;;;;;;;;;;2079207;28;19913;-81
2023/10/15 05:18:59;;;;;;;;;;;;;;;;;;2080945;28;19905;-83
2023/10/15 05:20:20;;;;;;;;;;;;;;;;;;2075674;28;19913;-83
2023/10/15 05:21:39;;;;;;;;;;;;;;;;;;2075464;28;19909;-82
2023/10/15 05:22:58;;;;;;;;;;;;;;;;;;2076334;28;19905;-82
2023/10/15 05:24:18;;;;;;;;;;;;;;;;;;2079391;28;19917;-83
2023/10/15 05:25:39;;;;;;;;;;;;;;;;;;2073759;28;19952;-82
2023/10/15 05:26:58;;;;;;;;;;;;;;;;;;2075018;28;19909;-83
2023/10/15 05:28:17;;;;;;;;;;;;;;;;;;2078232;28;20305;-82
2023/10/15 05:29:36;;;;;;;;;;;;;;;;;;2074518;28;20027;-80
2023/10/15 05:30:58;;;;;;;;;;;;;;;;;;2078623;28;19905;-81
2023/10/15 05:32:16;;;;;;;;;;;;;;;;;;2073678;28;20270;-82
2023/10/15 05:33:35;;;;;;;;;;;;;;;;;;2078125;28;19913;-80
2023/10/15 05:34:54;;;;;;;;;;;;;;;;;;2075753;28;19913;-82
2023/10/15 05:36:13;;;;;;;;;;;;;;;;;;2071549;28;19913;-83
2023/10/15 05:37:32;;;;;;;;;;;;;;;;;;2078439;28;19905;-83
2023/10/15 05:38:51;;;;;;;;;;;;;;;;;;2080090;28;19934;-83
2023/10/15 05:40:12;;;;;;;;;;;;;;;;;;2074499;28;19908;-81
2023/10/15 05:41:32;;;;;;;;;;;;;;;;;;2067915;28;19913;-85
2023/10/15 05:42:51;;;;;;;;;;;;;;;;;;2068997;28;19917;-83
2023/10/15 05:44:11;;;;;;;;;;;;;;;;;;2076616;28;19909;-80
2023/10/15 05:45:30;;;;;;;;;;;;;;;;;;2080633;28;20381;-84
2023/10/15 05:46:48;;;;;;;;;;;;;;;;;;2080835;28;19909;-83
2023/10/15 05:48:07;;;;;;;;;;;;;;;;;;2075267;28;19906;-83
2023/10/15 05:49:26;;;;;;;;;;;;;;;;;;2072432;28;19908;-83
2023/10/15 05:50:45;;;;;;;;;;;;;;;;;;2072068;28;19917;-83
2023/10/15 05:52:06;;;;;;;;;;;;;;;;;;2070303;28;19972;-84
2023/10/15 05:53:24;;;;;;;;;;;;;;;;;;2071754;28;19999;-84
2023/10/15 05:54:43;;;;;;;;;;;;;;;;;;2077601;28;19912;-83
2023/10/15 05:56:02;;;;;;;;;;;;;;;;;;2074446;28;19905;-84
2023/10/15 05:57:24;;;;;;;;;;;;;;;;;;2079479;28;19943;-84
2023/10/15 05:58:43;;;;;;;;;;;;;;;;;;2076349;28;20138;-86
2023/10/15 06:00:47;;;;;;;;;;;;;;;;;;2075185;28;19905;-84
2023/10/15 06:01:40;;;;;;;;;;;;;;;;;;2077888;28;19909;-82
2023/10/15 06:02:59;;;;;;;;;;;;;;;;;;2076637;28;20378;-85
2023/10/15 06:04:18;;;;;;;;;;;;;;;;;;2078342;28;19909;-84
2023/10/15 06:05:37;;;;;;;;;;;;;;;;;;2080641;28;20385;-83
2023/10/15 06:06:56;;;;;;;;;;;;;;;;;;2074354;28;19906;-84
2023/10/15 06:08:14;;;;;;;;;;;;;;;;;;2079459;28;19905;-86
2023/10/15 06:09:38;;;;;;;;;;;;;;;;;;2076175;28;19952;-84
2023/10/15 06:10:57;;;;;;;;;;;;;;;;;;2078574;28;19905;-87
2023/10/15 06:12:15;;;;;;;;;;;;;;;;;;2080797;28;19985;-84
2023/10/15 06:13:35;;;;;;;;;;;;;;;;;;2075062;28;19913;-84
2023/10/15 06:14:53;;;;;;;;;;;;;;;;;;2072429;28;19917;-84
2023/10/15 06:16:14;;;;;;;;;;;;;;;;;;2079048;28;19905;-83
2023/10/15 06:17:33;;;;;;;;;;;;;;;;;;2077013;28;20333;-83
2023/10/15 06:18:51;;;;;;;;;;;;;;;;;;2078959;28;19909;-82
2023/10/15 06:20:13;;;;;;;;;;;;;;;;;;2074888;28;19909;-82
2023/10/15 06:21:34;;;;;;;;;;;;;;;;;;2080616;28;19905;-84
2023/10/15 06:22:56;;;;;;;;;;;;;;;;;;2083042;28;19999;-84
2023/10/15 06:24:15;;;;;;;;;;;;;;;;;;2080820;28;19937;-84
2023/10/15 06:25:38;;;;;;;;;;;;;;;;;;2075987;28;19904;-84
2023/10/15 06:26:57;;;;;;;;;;;;;;;;;;2077753;28;19905;-81
2023/10/15 06:28:15;;;;;;;;;;;;;;;;;;2080756;28;19917;-83
2023/10/15 06:29:34;;;;;;;;;;;;;;;;;;2075718;28;19905;-85
2023/10/15 06:30:53;;;;;;;;;;;;;;;;;;2078884;28;19913;-83
2023/10/15 06:32:12;;;;;;;;;;;;;;;;;;2073548;28;19941;-84
2023/10/15 06:33:30;;;;;;;;;;;;;;;;;;2076017;28;20344;-84
2023/10/15 06:34:50;;;;;;;;;;;;;;;;;;2078671;28;19982;-84
2023/10/15 06:36:08;;;;;;;;;;;;;;;;;;2084085;28;19908;-84
2023/10/15 06:37:27;;;;;;;;;;;;;;;;;;2082922;28;20329;-84
2023/10/15 06:38:46;;;;;;;;;;;;;;;;;;2079720;28;20329;-83
2023/10/15 06:40:05;;;;;;;;;;;;;;;;;;2082964;28;19902;-82
2023/10/15 06:41:24;;;;;;;;;;;;;;;;;;2086256;28;19917;-81
2023/10/15 06:42:43;;;;;;;;;;;;;;;;;;2085760;28;20128;-82
2023/10/15 06:44:02;;;;;;;;;;;;;;;;;;2087382;28;19909;-82
2023/10/15 06:45:21;;;;;;;;;;;;;;;;;;2082778;28;19901;-84
2023/10/15 06:46:40;;;;;;;;;;;;;;;;;;2089628;28;19897;-83
2023/10/15 06:48:00;;;;;;;;;;;;;;;;;;2091147;28;19905;-82
2023/10/15 06:49:18;;;;;;;;;;;;;;;;;;2080209;28;19905;-82
2023/10/15 06:50:37;;;;;;;;;;;;;;;;;;2075652;28;19905;-85
2023/10/15 06:51:57;;;;;;;;;;;;;;;;;;2079568;28;19991;-85
2023/10/15 06:53:16;;;;;;;;;;;;;;;;;;2079691;28;20346;-84
2023/10/15 06:54:35;;;;;;;;;;;;;;;;;;2082061;28;19905;-83
2023/10/15 06:55:54;;;;;;;;;;;;;;;;;;2080830;28;19913;-85
2023/10/15 06:57:16;;;;;;;;;;;;;;;;;;2075810;28;20282;-82
2023/10/15 06:58:35;;;;;;;;;;;;;;;;;;2077997;28;19909;-82
2023/10/15 06:59:54;;;;;;;;;;;;;;;;;;2076395;28;20366;-82
2023/10/15 07:01:13;;;;;;;;;;;;;;;;;;2077383;28;20367;-84
2023/10/15 07:02:32;;;;;;;;;;;;;;;;;;2080798;28;19909;-83
2023/10/15 07:03:51;;;;;;;;;;;;;;;;;;2079607;28;19972;-84
2023/10/15 07:05:12;;;;;;;;;;;;;;;;;;2074940;28;20008;-86
2023/10/15 07:06:31;;;;;;;;;;;;;;;;;;2074226;28;20382;-84
2023/10/15 07:07:50;;;;;;;;;;;;;;;;;;2081067;28;19904;-88
2023/10/15 07:09:09;;;;;;;;;;;;;;;;;;2076115;28;20417;-86
2023/10/15 07:10:28;;;;;;;;;;;;;;;;;;2072500;28;19940;-86
2023/10/15 07:11:47;;;;;;;;;;;;;;;;;;2079644;28;19909;-87
2023/10/15 07:13:06;;;;;;;;;;;;;;;;;;2083759;28;19905;-86
2023/10/15 07:14:25;;;;;;;;;;;;;;;;;;2075607;28;19905;-86
2023/10/15 07:15:45;;;;;;;;;;;;;;;;;;2076349;28;19913;-84
2023/10/15 07:17:04;;;;;;;;;;;;;;;;;;2073977;28;19905;-85
2023/10/15 07:18:23;;;;;;;;;;;;;;;;;;2073233;28;19905;-86
2023/10/15 07:19:42;;;;;;;;;;;;;;;;;;2075434;28;19905;-85
2023/10/15 07:21:01;;;;;;;;;;;;;;;;;;2068438;28;20417;-82
2023/10/15 07:22:20;;;;;;;;;;;;;;;;;;2071796;28;19913;-86
2023/10/15 07:23:39;;;;;;;;;;;;;;;;;;2069051;28;19910;-85
2023/10/15 07:24:59;;;;;;;;;;;;;;;;;;2066872;28;19914;-88
2023/10/15 07:26:18;;;;;;;;;;;;;;;;;;2068780;28;19996;-87
2023/10/15 07:27:36;;;;;;;;;;;;;;;;;;2069089;28;20343;-87
2023/10/15 07:28:56;;;;;;;;;;;;;;;;;;2072364;28;19913;-88
2023/10/15 07:30:15;;;;;;;;;;;;;;;;;;2066999;28;19996;-88
2023/10/15 07:31:33;;;;;;;;;;;;;;;;;;2064627;28;20000;-86
2023/10/15 07:32:58;;;;;;;;;;;;;;;;;;2060772;28;19945;-86
2023/10/15 07:34:17;;;;;;;;;;;;;;;;;;2064965;28;19941;-86
2023/10/15 07:35:38;;;;;;;;;;;;;;;;;;2066480;28;20262;-86
2023/10/15 07:36:57;;;;;;;;;;;;;;;;;;2066925;28;19964;-84
2023/10/15 07:38:18;;;;;;;;;;;;;;;;;;2073313;28;19909;-88
2023/10/15 07:39:37;;;;;;;;;;;;;;;;;;2066259;28;19906;-83
2023/10/15 07:40:56;;;;;;;;;;;;;;;;;;2071627;28;19976;-82
2023/10/15 07:42:15;;;;;;;;;;;;;;;;;;2065970;28;20302;-84
2023/10/15 07:43:34;;;;;;;;;;;;;;;;;;2071399;28;19992;-85
2023/10/15 07:44:52;;;;;;;;;;;;;;;;;;2066454;28;19906;-84
2023/10/15 07:46:14;;;;;;;;;;;;;;;;;;2062253;28;20658;-85
2023/10/15 07:47:37;;;;;;;;;;;;;;;;;;2066007;28;20317;-84
2023/10/15 07:48:56;;;;;;;;;;;;;;;;;;2063707;28;19910;-85
2023/10/15 07:50:18;;;;;;;;;;;;;;;;;;2064486;28;19909;-86
2023/10/15 07:51:38;;;;;;;;;;;;;;;;;;2066816;28;19931;-84
2023/10/15 07:52:57;;;;;;;;;;;;;;;;;;2063012;28;19909;-84
2023/10/15 07:54:16;;;;;;;;;;;;;;;;;;2066251;28;20347;-83
2023/10/15 07:55:35;;;;;;;;;;;;;;;;;;2069368;28;19909;-84
2023/10/15 07:56:54;;;;;;;;;;;;;;;;;;2068148;28;19914;-86
2023/10/15 07:58:13;;;;;;;;;;;;;;;;;;2066137;28;19906;-85
2023/10/15 07:59:32;;;;;;;;;;;;;;;;;;2067009;28;19929;-86
2023/10/15 08:00:53;;;;;;;;;;;;;;;;;;2064053;28;19993;-87
2023/10/15 08:02:12;;;;;;;;;;;;;;;;;;2064829;28;20294;-87
2023/10/15 08:03:32;;;;;;;;;;;;;;;;;;2067707;28;20378;-87
2023/10/15 08:05:00;;;;;;;;;;;;;;;;;;2076849;28;20034;-93
2023/10/15 08:06:19;;;;;;;;;;;;;;;;;;2075135;28;19913;-86
2023/10/15 08:07:38;;;;;;;;;;;;;;;;;;2068286;28;19913;-85
2023/10/15 08:08:56;;;;;;;;;;;;;;;;;;2073115;28;19913;-85
2023/10/15 08:10:17;;;;;;;;;;;;;;;;;;2067618;28;19909;-84
2023/10/15 08:11:37;;;;;;;;;;;;;;;;;;2067255;28;20322;-86
2023/10/15 08:12:58;;;;;;;;;;;;;;;;;;2068914;28;19905;-88
2023/10/15 08:14:17;;;;;;;;;;;;;;;;;;2063873;28;19913;-90
2023/10/15 08:15:38;;;;;;;;;;;;;;;;;;2067064;28;20040;-87
2023/10/15 08:16:57;;;;;;;;;;;;;;;;;;2063336;28;19914;-88
2023/10/15 08:18:16;;;;;;;;;;;;;;;;;;2064394;28;19937;-86
2023/10/15 08:19:42;;;;;;;;;;;;;;;;;;2073315;28;19971;-86
2023/10/15 08:21:01;;;;;;;;;;;;;;;;;;2069338;28;19921;-87
2023/10/15 08:22:19;;;;;;;;;;;;;;;;;;2072624;28;19931;-84
2023/10/15 08:23:41;;;;;;;;;;;;;;;;;;2073995;28;19980;-85
2023/10/15 08:24:59;;;;;;;;;;;;;;;;;;2068848;28;19913;-83
2023/10/15 08:26:18;;;;;;;;;;;;;;;;;;2068869;28;19909;-83
2023/10/15 08:27:43;;;;;;;;;;;;;;;;;;2078132;28;19905;-83
2023/10/15 08:29:02;;;;;;;;;;;;;;;;;;2072540;28;19905;-83
2023/10/15 08:30:21;;;;;;;;;;;;;;;;;;2077421;28;19979;-85
2023/10/15 08:31:40;;;;;;;;;;;;;;;;;;2070301;28;19999;-83
2023/10/15 08:32:59;;;;;;;;;;;;;;;;;;2072924;28;20359;-84
2023/10/15 08:34:18;;;;;;;;;;;;;;;;;;2071977;28;19981;-80
2023/10/15 08:35:37;;;;;;;;;;;;;;;;;;2070589;28;19912;-84
2023/10/15 08:36:56;;;;;;;;;;;;;;;;;;2074155;28;19906;-86
2023/10/15 08:38:15;;;;;;;;;;;;;;;;;;2073119;28;19906;-85
2023/10/15 08:39:33;;;;;;;;;;;;;;;;;;2072758;28;20485;-84
2023/10/15 08:40:53;;;;;;;;;;;;;;;;;;2069298;28;19909;-86
2023/10/15 08:42:13;;;;;;;;;;;;;;;;;;2073294;28;19905;-85
2023/10/15 08:43:32;;;;;;;;;;;;;;;;;;2073332;28;20430;-83
2023/10/15 08:44:51;;;;;;;;;;;;;;;;;;2073222;28;20000;-82
2023/10/15 08:46:10;;;;;;;;;;;;;;;;;;2073371;28;19949;-81
2023/10/15 08:47:29;;;;;;;;;;;;;;;;;;2073879;28;19913;-80
2023/10/15 08:48:48;;;;;;;;;;;;;;;;;;2071990;28;21083;-81
2023/10/15 08:50:07;;;;;;;;;;;;;;;;;;2076882;28;19909;-82
2023/10/15 08:51:26;;;;;;;;;;;;;;;;;;2072131;28;19910;-83
2023/10/15 08:52:45;;;;;;;;;;;;;;;;;;2073621;28;19909;-79
2023/10/15 08:54:04;;;;;;;;;;;;;;;;;;2072357;28;20032;-80
2023/10/15 08:55:23;;;;;;;;;;;;;;;;;;2074305;28;19909;-80
2023/10/15 08:56:43;;;;;;;;;;;;;;;;;;2072126;28;19909;-80
2023/10/15 08:58:02;;;;;;;;;;;;;;;;;;2072651;28;20008;-81
2023/10/15 08:59:21;;;;;;;;;;;;;;;;;;2078013;28;19905;-78
2023/10/15 09:00:43;;;;;;;;;;;;;;;;;;2080553;28;19995;-81
2023/10/15 09:02:03;;;;;;;;;;;;;;;;;;2074265;28;19914;-83
2023/10/15 09:03:23;;;;;;;;;;;;;;;;;;2073696;28;19905;-82
2023/10/15 09:04:47;;;;;;;;;;;;;;;;;;2071688;28;19988;-82
2023/10/15 09:06:06;;;;;;;;;;;;;;;;;;2073381;28;19905;-82
2023/10/15 09:07:25;;;;;;;;;;;;;;;;;;2072811;28;19905;-81
2023/10/15 09:08:44;;;;;;;;;;;;;;;;;;2073851;28;19913;-82
2023/10/15 09:10:03;;;;;;;;;;;;;;;;;;2071882;28;20001;-84
2023/10/15 09:11:22;;;;;;;;;;;;;;;;;;2070602;28;20419;-82
2023/10/15 09:12:41;;;;;;;;;;;;;;;;;;2073285;28;19910;-83
2023/10/15 09:14:02;;;;;;;;;;;;;;;;;;2073487;28;19992;-82
2023/10/15 09:15:28;;;;;;;;;;;;;;;;;;2073392;28;19906;-81
2023/10/15 09:16:47;;;;;;;;;;;;;;;;;;2073288;28;19939;-82
2023/10/15 09:18:06;;;;;;;;;;;;;;;;;;2068925;28;20422;-82
2023/10/15 09:19:26;;;;;;;;;;;;;;;;;;2070017;28;19906;-84
2023/10/15 09:20:50;;;;;;;;;;;;;;;;;;2077492;28;19917;-84
2023/10/15 09:22:15;;;;;;;;;;;;;;;;;;2073359;28;19910;-81
2023/10/15 09:23:37;;;;;;;;;;;;;;;;;;2077778;28;19917;-82